Latest Weather Observations for Busselton Airport

IDW60801

Issued at 3:35 pm WST Friday 25 April 2014 (issued every 30 minutes, with the page automatically refreshed every 10 minutes)

About weather observations | Map of weather stations | Latest weather observations for WA | Other Formats
Station Details ID: 009603 Name: BUSSELTON AERO Lat: -33.69 Lon: 115.40 Height: 16.3 m
Data from the previous 72 hours. | See also: Recent months at Busselton Airport
Date/Time
WST
Temp
°C
App
Temp
°C
Dew
Point
Rel
Hum
%
Delta-T
°C
Wind Press
QNH
hPa
Press
MSL
hPa
Rain
since 9 am
mm
Dir
 
Spd
km/h
Gust
km/h
Spd
kts
Gust
kts
25/03:30pm 23.9 20.3 8.4 37 8.3 SE 17 20 9 11 1012.4 - 0.0
25/03:00pm 23.9 20.4 8.8 38 8.1 S 17 28 9 15 1012.2 1012.2 0.0
25/02:30pm 23.1 18.6 10.2 44 7.1 S 24 32 13 17 1012.2 - 0.0
25/02:00pm 23.8 19.9 9.4 40 7.8 S 20 28 11 15 1012.3 - 0.0
25/01:30pm 23.9 19.9 9.1 39 8.0 SE 20 24 11 13 1012.4 - 0.0
25/01:00pm 22.9 19.9 9.4 42 7.3 S 15 26 8 14 1012.8 - 0.0
25/12:30pm 22.0 18.6 10.5 48 6.3 SSE 19 24 10 13 1013.3 - 0.0
25/12:00pm 23.3 19.0 10.7 45 7.0 SSE 24 30 13 16 1013.5 1013.5 0.0
25/11:30am 20.7 17.3 11.1 54 5.3 SSE 20 26 11 14 1013.7 - 0.0
25/11:00am 20.8 16.5 10.9 53 5.4 S 24 30 13 16 1013.9 - 0.0
25/10:30am 21.5 17.4 11.3 52 5.7 SSE 24 33 13 18 1013.6 - 0.0
25/10:00am 20.8 16.0 11.7 56 5.1 SSE 28 35 15 19 1013.7 - 0.0
25/09:30am 19.5 15.7 12.3 63 4.0 SSE 24 32 13 17 1013.6 - 0.0
25/09:00am 18.5 15.0 12.3 67 3.4 SSE 22 33 12 18 1013.5 1013.5 0.0
25/08:30am 18.0 15.0 12.5 70 3.1 SSE 20 30 11 16 1013.1 - 0.0
25/08:00am 17.0 15.0 12.8 76 2.3 S 15 19 8 10 1012.7 - 0.0
25/07:30am 14.9 13.9 12.4 85 1.4 SSW 9 13 5 7 1012.2 - 0.0
25/07:00am 14.0 12.1 11.9 87 1.1 SSW 13 15 7 8 1011.8 - 0.0
25/06:30am 15.0 14.1 12.5 85 1.4 SW 9 11 5 6 1011.8 - 0.0
25/06:00am 14.2 13.4 11.7 85 1.3 SSW 7 9 4 5 1011.5 1011.5 0.0
25/05:30am 15.1 13.8 12.4 84 1.5 SSW 11 13 6 7 1011.4 - 0.0
25/05:00am 15.2 14.0 12.7 85 1.4 S 11 15 6 8 1011.0 - 0.0
25/04:30am 15.5 14.7 12.9 84 1.4 S 9 11 5 6 1010.7 - 0.0
25/04:00am 15.4 14.3 13.1 86 1.3 SSW 11 13 6 7 1010.7 - 0.0
25/03:30am 14.9 14.1 13.0 88 1.0 S 9 11 5 6 1010.3 - 0.0
25/03:00am 15.9 15.7 13.6 86 1.3 SSW 7 9 4 5 1010.5 1010.5 0.0
25/02:30am 16.0 15.0 13.3 84 1.5 SSW 11 13 6 7 1010.7 - 0.0
25/02:00am 16.5 15.2 13.6 83 1.6 SSW 13 15 7 8 1010.8 - 0.0
25/01:30am 16.6 15.2 13.5 82 1.7 S 13 19 7 10 1010.6 - 0.0
25/01:00am 16.8 15.4 13.5 81 1.9 SSW 13 19 7 10 1010.6 - 0.0
25/12:30am 17.0 15.7 13.6 80 1.9 S 13 15 7 8 1010.5 - 0.0
25/12:00am 16.9 15.5 13.4 80 2.0 SSW 13 17 7 9 1010.5 1010.5 0.0
 
Date/Time
WST
Temp
°C
App
Temp
°C
Dew
Point
Rel
Hum
%
Delta-T
°C
Wind Press
QNH
hPa
Press
MSL
hPa
Rain
since 9 am
mm
Dir
 
Spd
km/h
Gust
km/h
Spd
kts
Gust
kts
24/11:30pm 17.0 15.9 13.1 78 2.2 SSW 11 15 6 8 1010.7 - 0.0
24/11:00pm 17.2 16.1 13.2 77 2.2 S 11 13 6 7 1010.8 - 0.0
24/10:30pm 17.5 15.9 12.8 74 2.6 S 13 19 7 10 1010.8 - 0.0
24/10:00pm 17.8 15.7 12.5 71 2.9 S 15 19 8 10 1010.7 - 0.0
24/09:30pm 17.9 15.4 12.2 69 3.2 S 17 22 9 12 1010.8 - 0.0
24/09:00pm 17.9 14.8 11.7 67 3.4 S 19 24 10 13 1010.5 1010.5 0.0
24/08:30pm 18.0 15.3 11.8 67 3.4 S 17 22 9 12 1010.5 - 0.0
24/08:00pm 18.2 15.9 11.8 66 3.5 S 15 20 8 11 1010.5 - 0.0
24/07:30pm 18.5 15.2 11.6 64 3.8 SSW 20 28 11 15 1010.3 - 0.0
24/07:00pm 18.9 15.6 11.0 60 4.3 SSW 19 26 10 14 1010.1 - 0.0
24/06:30pm 19.6 16.7 10.9 57 4.7 SSW 17 19 9 10 1009.6 - 0.0
24/06:00pm 20.5 17.2 10.9 54 5.3 S 19 24 10 13 1008.8 1008.8 0.0
24/05:30pm 21.6 19.0 9.2 45 6.6 SSW 13 17 7 9 1008.8 - 0.0
24/05:00pm 22.4 18.9 8.9 42 7.2 S 17 20 9 11 1008.5 - 0.0
24/04:30pm 23.0 20.0 9.1 41 7.5 SSW 15 19 8 10 1008.4 - 0.0
24/04:00pm 23.6 21.1 9.6 41 7.6 SSW 13 17 7 9 1008.2 - 0.0
24/03:30pm 23.7 21.0 9.0 39 7.9 SSW 13 17 7 9 1008.2 - 0.0
24/03:00pm 24.0 20.8 8.4 37 8.3 SSW 15 19 8 10 1008.2 1008.2 0.0
24/02:30pm 24.5 22.7 9.3 38 8.3 S 9 17 5 9 1008.1 - 0.0
24/02:00pm 24.0 22.1 9.2 39 8.0 S 9 15 5 8 1008.1 - 0.0
24/01:30pm 23.9 21.8 9.9 41 7.7 ESE 11 17 6 9 1008.3 - 0.0
24/01:00pm 23.4 21.4 10.1 43 7.3 ESE 11 15 6 8 1008.7 - 0.0
24/12:30pm 22.9 20.9 10.0 44 7.0 SE 11 15 6 8 1009.2 - 0.0
24/12:00pm 22.8 20.4 10.0 44 7.0 SSE 13 19 7 10 1009.8 1009.8 0.0
24/11:30am 22.0 20.3 9.9 46 6.6 SE 9 15 5 8 1010.4 - 0.0
24/11:00am 21.4 19.4 10.0 48 6.2 SE 11 17 6 9 1010.7 - 0.0
24/10:30am 20.7 18.3 10.2 51 5.7 ESE 13 20 7 11 1011.2 - 0.0
24/10:00am 18.9 16.4 9.7 55 4.9 ESE 13 17 7 9 1011.7 - 0.0
24/09:30am 18.1 15.2 9.7 58 4.4 ESE 15 19 8 10 1012.2 - 0.0
24/09:00am 17.6 14.7 9.8 60 4.1 ESE 15 20 8 11 1012.6 1012.6 0.0
24/08:30am 16.4 12.8 9.8 65 3.5 ESE 19 24 10 13 1012.8 - 0.0
24/08:00am 14.8 12.3 9.8 72 2.6 ESE 13 17 7 9 1012.7 - 0.0
24/07:30am 13.0 10.8 9.5 79 1.8 ESE 11 13 6 7 1012.8 - 0.0
24/07:00am 12.4 10.5 9.1 80 1.7 ESE 9 11 5 6 1013.1 - 0.0
24/06:30am 12.1 9.8 8.9 81 1.6 ESE 11 13 6 7 1013.0 - 0.0
24/06:00am 12.0 10.1 8.9 81 1.5 ESE 9 11 5 6 1013.1 1013.1 0.0
24/05:30am 12.6 11.1 9.1 79 1.8 ESE 7 9 4 5 1013.2 - 0.0
24/05:00am 12.8 10.6 9.3 79 1.8 ESE 11 13 6 7 1013.2 - 0.0
24/04:30am 13.2 11.0 9.5 78 1.9 ESE 11 13 6 7 1013.3 - 0.0
24/04:00am 13.5 11.4 9.6 77 2.0 ESE 11 13 6 7 1013.4 - 0.0
24/03:30am 13.7 11.6 9.6 76 2.1 ESE 11 15 6 8 1013.4 - 0.0
24/03:00am 13.5 10.9 9.2 75 2.2 ESE 13 15 7 8 1013.9 1013.9 0.0
24/02:30am 14.0 10.6 9.3 73 2.4 ESE 17 19 9 10 1014.0 - 0.0
24/02:00am 14.1 10.8 9.4 73 2.4 ESE 17 20 9 11 1014.3 - 0.0
24/01:30am 14.4 10.7 9.4 72 2.6 ESE 19 22 10 12 1014.5 - 0.0
24/01:00am 14.5 10.8 9.5 72 2.6 ESE 19 24 10 13 1014.7 - 0.0
24/12:30am 14.9 11.3 9.7 71 2.7 SE 19 24 10 13 1014.9 - 0.0
24/12:00am 14.7 11.4 9.5 71 2.7 SE 17 20 9 11 1015.2 1015.2 0.0
 
Date/Time
WST
Temp
°C
App
Temp
°C
Dew
Point
Rel
Hum
%
Delta-T
°C
Wind Press
QNH
hPa
Press
MSL
hPa
Rain
since 9 am
mm
Dir
 
Spd
km/h
Gust
km/h
Spd
kts
Gust
kts
23/11:30pm 14.8 12.3 9.8 72 2.6 SE 13 19 7 10 1015.2 - 0.0
23/11:00pm 15.1 12.3 9.9 71 2.7 SE 15 20 8 11 1015.4 - 0.0
23/10:30pm 15.3 11.8 10.1 71 2.7 SSE 19 22 10 12 1015.7 - 0.0
23/10:00pm 15.5 12.0 10.1 70 2.8 SSE 19 24 10 13 1015.9 - 0.0
23/09:30pm 15.6 12.5 10.2 70 2.8 SSE 17 22 9 12 1016.1 - 0.0
23/09:00pm 15.8 12.3 10.2 69 2.9 SSE 19 24 10 13 1016.0 1016.0 0.0
23/08:30pm 15.9 12.4 10.2 69 3.0 SSE 19 24 10 13 1016.0 - 0.0
23/08:00pm 16.2 12.8 10.5 69 3.0 SSE 19 24 10 13 1016.1 - 0.0
23/07:30pm 16.5 13.1 10.6 68 3.1 S 19 22 10 12 1016.2 - 0.0
23/07:00pm 16.8 14.2 10.7 67 3.3 S 15 19 8 10 1016.3 - 0.0
23/06:30pm 17.5 14.8 10.4 63 3.8 S 15 19 8 10 1016.2 - 0.0
23/06:00pm 18.7 15.4 9.5 55 4.8 S 17 19 9 10 1015.7 1015.7 0.0
23/05:30pm 20.0 17.3 9.0 49 5.8 SSE 13 19 7 10 1015.5 - 0.0
23/05:00pm 21.2 18.2 9.2 46 6.4 SSE 15 19 8 10 1015.4 - 0.0
23/04:30pm 21.9 18.5 9.1 44 6.8 SSE 17 24 9 13 1015.5 - 0.0
23/04:00pm 21.8 18.4 9.1 44 6.8 SE 17 24 9 13 1015.4 - 0.0
23/03:30pm 22.2 19.2 9.4 44 6.9 ESE 15 20 8 11 1015.5 - 0.0
23/03:00pm 22.3 19.9 8.8 42 7.2 ESE 11 22 6 12 1015.4 1015.4 0.0
23/02:30pm 22.3 18.3 8.4 41 7.3 SSE 19 24 10 13 1015.7 - 0.0
23/02:00pm 22.0 19.3 8.9 43 7.0 ESE 13 26 7 14 1016.0 - 0.0
23/01:30pm 21.8 19.3 8.3 42 7.1 SE 11 19 6 10 1016.4 - 0.0
23/01:00pm 21.3 17.2 8.6 44 6.7 SE 20 24 11 13 1016.8 - 0.0
23/12:30pm 20.4 17.0 9.1 48 6.0 SSE 17 24 9 13 1017.3 - 0.0
23/12:00pm 20.6 17.2 9.2 48 6.0 SE 17 24 9 13 1017.7 1017.7 0.0
23/11:30am 20.5 17.5 9.2 48 6.0 SE 15 22 8 12 1017.9 - 0.0
23/11:00am 20.6 19.8 11.0 54 5.3 E 6 9 3 5 1018.1 - 0.0
23/10:30am 18.5 17.0 10.6 60 4.3 E 9 15 5 8 1018.4 - 0.0
23/10:00am 18.6 17.7 11.2 62 4.0 E 7 15 4 8 1018.5 - 0.0
23/09:30am 16.6 15.5 10.7 68 3.1 ENE 7 11 4 6 1018.9 - 0.0
23/09:00am 15.0 13.9 10.5 74 2.4 E 7 9 4 5 1019.0 1019.0 0.0
23/08:30am 13.5 12.4 9.9 79 1.9 E 6 9 3 5 1018.9 - 0.0
23/08:00am 12.4 10.7 10.0 85 1.2 E 9 11 5 6 1018.6 - 0.0
23/07:30am 10.0 8.0 8.5 90 0.7 E 9 9 5 5 1018.3 - 0.0
23/07:00am 8.7 6.7 7.0 89 0.8 E 7 9 4 5 1018.1 - 0.0
23/06:30am 9.3 8.7 7.4 88 0.9 CALM 0 0 0 0 1017.9 - 0.0
23/06:00am 10.0 8.3 8.3 89 0.8 E 7 7 4 4 1017.7 1017.7 0.0
23/05:30am 8.9 8.3 7.2 89 0.8 CALM 0 6 0 3 1017.7 - 0.0
23/05:00am 8.6 6.5 6.8 88 0.8 ENE 7 9 4 5 1017.8 - 0.0
23/04:30am 8.9 6.6 7.4 90 0.7 E 9 11 5 6 1017.9 - 0.0
23/04:00am 7.6 6.7 6.1 90 0.7 CALM 0 0 0 0 1017.9 - 0.0
23/03:30am 6.4 5.3 4.9 90 0.7 CALM 0 0 0 0 1017.9 - 0.0
23/03:00am 6.6 5.1 5.2 91 0.6 WNW 2 6 1 3 1018.0 1018.0 0.0
23/02:30am 5.7 3.3 4.2 90 0.6 ESE 6 7 3 4 1018.1 - 0.0
23/02:00am 5.3 2.8 3.5 88 0.7 S 6 6 3 3 1018.5 - 0.0
23/01:30am 7.5 5.4 6.0 90 0.7 SW 6 17 3 9 1018.6 - 0.0
23/01:00am 6.5 5.3 4.8 89 0.7 CALM 0 0 0 0 1018.4 - 0.0
23/12:30am 7.1 6.1 5.5 89 0.7 CALM 0 0 0 0 1018.4 - 0.0
23/12:00am 6.7 5.5 4.6 86 0.9 CALM 0 0 0 0 1018.2 1018.2 0.0
 
Date/Time
WST
Temp
°C
App
Temp
°C
Dew
Point
Rel
Hum
%
Delta-T
°C
Wind Press
QNH
hPa
Press
MSL
hPa
Rain
since 9 am
mm
Dir
 
Spd
km/h
Gust
km/h
Spd
kts
Gust
kts
22/11:30pm 8.1 7.2 5.9 86 1.0 CALM 0 0 0 0 1018.6 - 0.0
22/11:00pm 7.9 6.9 5.6 85 1.0 CALM 0 0 0 0 1018.7 - 0.0
22/10:30pm 9.3 8.5 6.6 83 1.3 CALM 0 0 0 0 1019.3 - 0.0
22/10:00pm 9.9 9.3 7.2 83 1.3 CALM 0 0 0 0 1019.1 - 0.0
22/09:30pm 9.2 6.9 5.9 80 1.5 SE 7 9 4 5 1019.0 - 0.0
22/09:00pm 10.9 9.0 7.4 79 1.7 SE 7 7 4 4 1019.4 1019.4 0.0
22/08:30pm 12.2 9.9 7.3 72 2.4 SSW 9 11 5 6 1019.6 - 0.0
22/08:00pm 13.9 11.9 8.6 70 2.7 SSW 9 11 5 6 1019.5 - 0.0
22/07:30pm 13.8 12.1 8.2 69 2.8 S 7 11 4 6 1019.1 - 0.0
22/07:00pm 14.0 11.5 8.2 68 2.9 SW 11 13 6 7 1019.0 - 0.0
22/06:30pm 15.1 12.6 8.2 63 3.5 SW 11 13 6 7 1018.8 - 0.0
22/06:00pm 16.9 13.9 9.1 60 4.0 SW 15 19 8 10 1018.1 1018.1 0.0
22/05:30pm 18.3 14.3 9.1 55 4.8 SW 20 28 11 15 1018.1 - 0.0
22/05:00pm 19.9 16.1 7.7 45 6.3 WSW 17 24 9 13 1018.1 - 0.0
22/04:30pm 20.7 17.2 7.0 41 7.0 SW 15 26 8 14 1017.8 - 0.0
22/04:00pm 20.7 17.8 6.3 39 7.2 SW 11 17 6 9 1018.0 - 0.0

Other Formats:

Comma delimited format used in spreadsheet applications
http://www.bom.gov.au/fwo/IDW60801/IDW60801.95611.axf

JavaScript Object Notation format (JSON) in row-major order
http://www.bom.gov.au/fwo/IDW60801/IDW60801.95611.json